createdAt,value
2022-10-04T00:01:01.614Z,98.90
2022-10-04T00:03:33.890Z,99.00
2022-10-04T00:06:03.623Z,99.00
2022-10-04T00:08:42.032Z,98.90
2022-10-04T00:11:16.677Z,99.00
2022-10-04T00:13:50.389Z,99.00
2022-10-04T00:16:29.857Z,99.00
2022-10-04T00:19:41.946Z,98.90
2022-10-04T00:22:17.342Z,98.80
2022-10-04T00:25:22.529Z,98.70
2022-10-04T00:28:24.462Z,98.70
2022-10-04T00:31:25.642Z,98.70
2022-10-04T00:33:56.226Z,98.70
2022-10-04T00:36:47.282Z,98.60
2022-10-04T00:39:18.388Z,98.80
2022-10-04T00:41:58.373Z,98.90
2022-10-04T00:44:34.287Z,98.90
2022-10-04T00:47:14.172Z,98.80
2022-10-04T00:49:46.850Z,98.60
2022-10-04T00:52:44.112Z,98.60
2022-10-04T00:55:19.465Z,98.70
2022-10-04T00:57:50.452Z,98.60
2022-10-04T01:00:22.547Z,98.60
2022-10-04T01:02:57.884Z,98.60
2022-10-04T01:05:29.200Z,98.90
2022-10-04T01:08:07.465Z,98.90
2022-10-04T01:10:41.880Z,99.10
2022-10-04T01:13:14.144Z,99.10
2022-10-04T01:15:46.394Z,99.00
2022-10-04T01:18:28.278Z,99.00
2022-10-04T01:20:59.868Z,99.20
2022-10-04T01:23:41.662Z,99.10
2022-10-04T01:26:42.505Z,99.20
2022-10-04T01:29:15.296Z,99.20
2022-10-04T01:31:46.467Z,99.00
2022-10-04T01:34:17.071Z,99.30
2022-10-04T01:36:46.162Z,99.20
2022-10-04T01:39:16.879Z,99.20
2022-10-04T01:41:49.812Z,99.50
2022-10-04T01:44:27.331Z,99.50
2022-10-04T01:46:59.451Z,99.40
2022-10-04T01:49:32.406Z,99.80
2022-10-04T01:52:06.300Z,99.70
2022-10-04T01:54:39.429Z,99.80
2022-10-04T01:57:15.117Z,99.90
2022-10-04T01:59:47.662Z,99.90
2022-10-04T02:02:25.927Z,99.80
2022-10-04T02:04:56.988Z,99.70
2022-10-04T02:07:26.572Z,99.70
2022-10-04T02:10:00.487Z,99.70
2022-10-04T02:12:31.430Z,99.60
2022-10-04T02:15:02.303Z,99.50
2022-10-04T02:17:33.167Z,99.50
2022-10-04T02:20:03.021Z,99.50
2022-10-04T02:22:31.824Z,99.40
2022-10-04T02:25:01.857Z,99.60
2022-10-04T02:27:31.587Z,99.70
2022-10-04T02:30:04.814Z,99.90
2022-10-04T02:32:52.162Z,99.80
2022-10-04T02:35:21.388Z,99.90
2022-10-04T02:37:55.461Z,99.90
2022-10-04T02:40:34.821Z,99.80
2022-10-04T02:43:08.946Z,99.80
2022-10-04T02:45:44.194Z,99.80
2022-10-04T02:48:31.067Z,99.90
2022-10-04T02:51:08.240Z,99.90
2022-10-04T02:53:50.497Z,99.90
2022-10-04T02:56:22.248Z,99.90
2022-10-04T02:58:50.483Z,99.90
2022-10-04T03:01:27.478Z,99.90
2022-10-04T03:03:57.617Z,99.90
2022-10-04T03:06:32.301Z,99.90
2022-10-04T03:09:03.290Z,99.90
2022-10-04T03:11:36.586Z,99.90
2022-10-04T03:14:09.140Z,99.90
2022-10-04T03:16:40.133Z,99.90
2022-10-04T03:19:09.992Z,99.90
2022-10-04T03:21:40.679Z,99.90
2022-10-04T03:24:11.278Z,99.90
2022-10-04T03:26:45.416Z,99.90
2022-10-04T03:29:17.320Z,99.90
2022-10-04T03:31:47.615Z,99.80
2022-10-04T03:34:18.105Z,99.80
2022-10-04T03:36:49.213Z,99.90
2022-10-04T03:39:32.757Z,99.90
2022-10-04T03:42:05.993Z,99.90
2022-10-04T03:44:34.837Z,99.90
2022-10-04T03:47:08.247Z,99.90
2022-10-04T03:49:38.857Z,99.90
2022-10-04T03:52:09.001Z,99.90
2022-10-04T03:54:37.658Z,99.90
2022-10-04T03:57:07.613Z,99.90
2022-10-04T03:59:37.483Z,99.90
2022-10-04T04:02:13.432Z,99.90
2022-10-04T04:04:45.921Z,99.90
2022-10-04T04:07:19.926Z,99.90
2022-10-04T04:09:53.124Z,99.90
2022-10-04T04:15:31.249Z,99.90
2022-10-04T04:18:02.839Z,99.90
2022-10-04T04:20:34.310Z,99.90
2022-10-04T04:23:06.349Z,99.90
2022-10-04T04:25:38.402Z,99.90
2022-10-04T04:28:15.513Z,99.90
2022-10-04T04:30:48.263Z,99.90
2022-10-04T04:33:23.100Z,99.90
2022-10-04T04:35:56.454Z,99.90
2022-10-04T04:38:25.637Z,99.90
2022-10-04T04:40:55.696Z,99.90
2022-10-04T04:43:28.614Z,99.90
2022-10-04T04:46:22.257Z,99.90
2022-10-04T04:48:48.091Z,99.90
2022-10-04T04:51:21.769Z,99.90
2022-10-04T04:53:51.155Z,99.90
2022-10-04T04:56:21.832Z,99.90
2022-10-04T04:58:53.122Z,99.90
2022-10-04T05:01:25.144Z,99.90
2022-10-04T05:04:04.682Z,99.90
2022-10-04T05:06:34.190Z,99.90
2022-10-04T05:09:02.881Z,99.90
2022-10-04T05:11:33.751Z,99.90
2022-10-04T05:14:07.306Z,99.90
2022-10-04T05:16:41.540Z,99.90
2022-10-04T05:19:15.880Z,99.90
2022-10-04T05:21:46.813Z,99.90
2022-10-04T05:24:22.471Z,99.90
2022-10-04T05:26:52.316Z,99.90
2022-10-04T05:29:25.914Z,99.90
2022-10-04T05:32:04.224Z,99.90
2022-10-04T05:34:39.379Z,99.90
2022-10-04T05:37:30.307Z,99.90
2022-10-04T05:40:17.299Z,99.90
2022-10-04T05:42:46.852Z,99.90
2022-10-04T05:45:19.917Z,99.90
2022-10-04T05:47:51.255Z,99.90
2022-10-04T05:50:21.837Z,99.90
2022-10-04T05:52:52.482Z,99.90
2022-10-04T05:55:28.584Z,99.90
2022-10-04T05:58:18.320Z,99.90
2022-10-04T06:01:13.829Z,99.90
2022-10-04T06:03:58.246Z,99.90
2022-10-04T06:06:35.155Z,99.90
2022-10-04T06:09:16.091Z,99.90
2022-10-04T06:12:01.137Z,99.90
2022-10-04T06:14:46.439Z,99.90
2022-10-04T06:17:40.667Z,99.90
2022-10-04T06:20:34.394Z,99.90
2022-10-04T06:23:07.853Z,99.90
2022-10-04T06:25:41.508Z,99.90
2022-10-04T06:28:19.600Z,99.90
2022-10-04T06:31:11.341Z,99.90
2022-10-04T06:33:55.269Z,99.90
2022-10-04T06:36:39.009Z,99.90
2022-10-04T06:39:21.347Z,99.90
2022-10-04T06:42:19.684Z,99.90
2022-10-04T06:45:06.097Z,99.90
2022-10-04T06:47:51.633Z,99.90
2022-10-04T06:50:29.767Z,99.90
2022-10-04T06:53:19.162Z,99.90
2022-10-04T06:56:16.084Z,99.90
2022-10-04T06:59:21.207Z,99.90
2022-10-04T07:01:52.651Z,99.90
2022-10-04T07:04:55.849Z,99.90
2022-10-04T07:07:35.441Z,99.80
2022-10-04T07:10:22.828Z,99.70
2022-10-04T07:12:59.965Z,99.60
2022-10-04T07:15:33.173Z,99.50
2022-10-04T07:18:07.190Z,99.60
2022-10-04T07:20:36.830Z,99.70
2022-10-04T07:23:09.976Z,99.90
2022-10-04T07:25:45.817Z,99.60
2022-10-04T07:28:36.023Z,99.50
2022-10-04T07:31:06.794Z,99.40
2022-10-04T07:33:43.450Z,99.40
2022-10-04T07:36:13.757Z,99.40
2022-10-04T07:38:49.849Z,99.30
2022-10-04T07:41:21.913Z,99.30
2022-10-04T07:43:56.110Z,99.20
2022-10-04T07:46:43.783Z,99.20
2022-10-04T07:49:16.439Z,99.30
2022-10-04T07:52:08.902Z,99.30
2022-10-04T07:54:45.255Z,99.30
2022-10-04T07:57:23.555Z,99.20
2022-10-04T08:00:01.269Z,99.10
2022-10-04T08:02:50.604Z,99.30
2022-10-04T08:05:24.368Z,99.00
2022-10-04T08:08:32.591Z,98.80
2022-10-04T08:11:17.326Z,98.80
2022-10-04T08:13:58.067Z,98.80
2022-10-04T08:16:37.037Z,98.70
2022-10-04T08:19:33.292Z,98.70
2022-10-04T08:22:07.685Z,98.60
2022-10-04T08:24:47.971Z,98.50
2022-10-04T08:27:40.433Z,98.40
2022-10-04T08:30:14.944Z,98.30
2022-10-04T08:33:01.693Z,98.20
2022-10-04T08:35:33.345Z,98.30
2022-10-04T08:38:25.468Z,98.20
2022-10-04T08:41:18.368Z,98.00
2022-10-04T08:44:13.252Z,97.80
2022-10-04T08:47:18.750Z,97.90
2022-10-04T08:50:22.790Z,97.80
2022-10-04T08:53:10.778Z,98.00
2022-10-04T08:55:51.750Z,97.90
2022-10-04T08:58:49.573Z,97.80
2022-10-04T09:01:39.779Z,97.60
2022-10-04T09:05:11.326Z,97.50
2022-10-04T09:08:17.380Z,97.30
2022-10-04T09:10:59.833Z,96.90
2022-10-04T09:13:41.258Z,96.70
2022-10-04T09:16:20.068Z,96.80
2022-10-04T09:19:14.304Z,96.60
2022-10-04T09:22:01.193Z,96.30
2022-10-04T09:24:58.609Z,95.90
2022-10-04T09:27:54.894Z,96.10
2022-10-04T09:30:31.082Z,96.20
2022-10-04T09:33:37.654Z,96.40
2022-10-04T09:36:28.574Z,96.30
2022-10-04T09:39:29.413Z,96.20
2022-10-04T09:42:29.274Z,95.80
2022-10-04T09:45:18.001Z,95.30
2022-10-04T09:47:48.518Z,95.30
2022-10-04T09:50:37.250Z,95.30
2022-10-04T09:53:25.267Z,95.10
2022-10-04T09:56:10.072Z,95.10
2022-10-04T09:59:03.899Z,95.20
2022-10-04T10:01:41.106Z,95.00
2022-10-04T10:04:35.444Z,94.80
2022-10-04T10:07:19.478Z,94.40
2022-10-04T10:10:31.332Z,94.60
2022-10-04T10:13:35.267Z,94.70
2022-10-04T10:16:12.244Z,94.40
2022-10-04T10:19:17.888Z,94.10
2022-10-04T10:21:56.324Z,93.10
2022-10-04T10:24:44.490Z,92.60
2022-10-04T10:27:43.072Z,93.80
2022-10-04T10:30:25.679Z,94.10
2022-10-04T10:33:46.881Z,93.70
2022-10-04T10:36:44.972Z,94.20
2022-10-04T10:39:38.843Z,93.40
2022-10-04T10:42:27.262Z,94.00
2022-10-04T10:45:23.943Z,94.20
2022-10-04T10:47:59.760Z,94.70
2022-10-04T10:50:59.422Z,94.80
2022-10-04T10:54:15.976Z,95.20
2022-10-04T10:56:47.809Z,94.90
2022-10-04T11:00:05.717Z,94.10
2022-10-04T11:03:31.126Z,94.70
2022-10-04T11:06:35.824Z,94.50
2022-10-04T11:09:34.961Z,94.00
2022-10-04T11:12:25.548Z,94.70
2022-10-04T11:15:34.278Z,94.80
2022-10-04T11:18:40.841Z,95.20
2022-10-04T11:21:28.897Z,94.20
2022-10-04T11:24:29.846Z,93.90
2022-10-04T11:27:28.365Z,94.00
2022-10-04T11:30:09.618Z,94.20
2022-10-04T11:33:10.201Z,94.00
2022-10-04T11:36:08.192Z,93.30
2022-10-04T11:38:53.364Z,91.80
2022-10-04T11:41:30.866Z,90.70
2022-10-04T11:44:29.381Z,90.90
2022-10-04T11:47:03.555Z,91.60
2022-10-04T11:49:56.563Z,91.10
2022-10-04T11:52:49.939Z,91.90
2022-10-04T11:55:43.168Z,91.40
2022-10-04T11:58:18.395Z,89.40
2022-10-04T12:01:21.425Z,90.20
2022-10-04T12:04:09.605Z,86.30
2022-10-04T12:06:51.687Z,86.90
2022-10-04T12:09:29.698Z,85.70
2022-10-04T12:12:39.904Z,86.20
2022-10-04T12:15:41.472Z,87.50
2022-10-04T12:18:34.433Z,84.20
2022-10-04T12:21:31.550Z,83.60
2022-10-04T12:24:16.090Z,84.30
2022-10-04T12:27:10.488Z,82.20
2022-10-04T12:30:23.886Z,83.40
2022-10-04T12:33:03.504Z,81.60
2022-10-04T12:35:43.198Z,80.00
2022-10-04T12:38:29.244Z,78.40
2022-10-04T12:41:12.065Z,77.20
2022-10-04T12:43:51.030Z,78.20
2022-10-04T12:46:31.499Z,77.20
2022-10-04T12:49:16.819Z,77.20
2022-10-04T12:51:56.343Z,78.10
2022-10-04T12:54:39.152Z,79.00
2022-10-04T12:57:34.557Z,76.50
2022-10-04T13:00:14.269Z,77.90
2022-10-04T13:03:11.944Z,76.80
2022-10-04T13:05:53.641Z,76.90
2022-10-04T13:08:32.534Z,72.70
2022-10-04T13:11:29.362Z,74.70
2022-10-04T13:14:26.881Z,74.00
2022-10-04T13:19:57.659Z,74.10
2022-10-04T13:22:56.467Z,72.20
2022-10-04T13:25:46.353Z,72.40
2022-10-04T13:28:24.538Z,70.40
2022-10-04T13:31:01.529Z,69.30
2022-10-04T13:33:37.507Z,69.30
2022-10-04T13:36:07.561Z,66.40
2022-10-04T13:38:54.646Z,66.10
2022-10-04T13:41:33.928Z,65.00
2022-10-04T13:44:21.639Z,65.40
2022-10-04T13:47:07.623Z,63.30
2022-10-04T13:49:52.571Z,63.20
2022-10-04T13:52:56.189Z,61.20
2022-10-04T13:55:50.591Z,60.90
2022-10-04T13:58:35.533Z,60.70
2022-10-04T14:01:36.810Z,59.00
2022-10-04T14:04:21.110Z,58.70
2022-10-04T14:07:24.814Z,56.80
2022-10-04T14:10:03.224Z,58.00
2022-10-04T14:12:54.590Z,60.90
2022-10-04T14:16:01.349Z,59.80
2022-10-04T14:19:08.734Z,59.70
2022-10-04T14:22:07.378Z,59.20
2022-10-04T14:25:21.666Z,57.50
2022-10-04T14:28:22.311Z,56.60
2022-10-04T14:31:04.294Z,58.00
2022-10-04T14:34:02.917Z,56.40
2022-10-04T14:36:54.768Z,55.70
2022-10-04T14:39:39.537Z,50.10
2022-10-04T14:42:23.828Z,53.50
2022-10-04T14:45:18.953Z,52.70
2022-10-04T14:48:12.318Z,52.80
2022-10-04T14:50:51.674Z,52.70
2022-10-04T14:53:29.138Z,52.60
2022-10-04T14:56:20.847Z,52.80
2022-10-04T14:59:00.120Z,52.00
2022-10-04T15:01:29.617Z,53.20
2022-10-04T15:04:21.866Z,52.90
2022-10-04T15:06:52.204Z,51.40
2022-10-04T15:09:45.984Z,51.50
2022-10-04T15:13:09.323Z,52.40
2022-10-04T15:15:50.239Z,52.90
2022-10-04T15:18:39.080Z,52.10
2022-10-04T15:21:21.442Z,53.00
2022-10-04T15:23:54.043Z,52.30
2022-10-04T15:27:05.007Z,51.80
2022-10-04T15:29:44.511Z,51.70
2022-10-04T15:32:19.262Z,51.00
2022-10-04T15:34:59.179Z,51.90
2022-10-04T15:37:41.070Z,51.20
2022-10-04T15:40:22.991Z,50.40
2022-10-04T15:43:02.575Z,50.60
2022-10-04T15:45:53.888Z,50.50
2022-10-04T15:48:50.618Z,51.10
2022-10-04T15:51:21.191Z,51.20
2022-10-04T15:54:05.775Z,51.40
2022-10-04T15:56:48.287Z,51.40
2022-10-04T15:59:35.456Z,50.90
2022-10-04T16:02:38.918Z,51.10
2022-10-04T16:05:24.195Z,51.60
2022-10-04T16:08:28.593Z,51.60
2022-10-04T16:11:36.623Z,51.60
2022-10-04T16:14:33.263Z,52.00
2022-10-04T16:17:28.556Z,51.90
2022-10-04T16:20:28.941Z,52.10
2022-10-04T16:23:24.219Z,52.60
2022-10-04T16:25:53.234Z,52.70
2022-10-04T16:28:36.596Z,52.60
2022-10-04T16:31:22.728Z,53.10
2022-10-04T16:34:01.913Z,54.20
2022-10-04T16:36:47.535Z,54.00
2022-10-04T16:39:51.592Z,54.70
2022-10-04T16:42:23.810Z,55.00
2022-10-04T16:44:55.907Z,55.80
2022-10-04T16:47:28.333Z,56.30
2022-10-04T16:49:59.394Z,56.90
2022-10-04T16:52:48.189Z,57.90
2022-10-04T16:55:44.279Z,59.30
2022-10-04T16:58:44.933Z,60.20
2022-10-04T17:01:56.684Z,61.10
2022-10-04T17:04:55.433Z,62.60
2022-10-04T17:07:37.190Z,63.20
2022-10-04T17:10:21.127Z,65.10
2022-10-04T17:12:56.579Z,66.40
2022-10-04T17:15:34.859Z,66.80
2022-10-04T17:18:19.510Z,68.70
2022-10-04T17:20:55.462Z,68.60
2022-10-04T17:23:40.125Z,69.20
2022-10-04T17:26:20.191Z,69.70
2022-10-04T17:28:56.681Z,71.30
2022-10-04T17:31:33.523Z,71.90
2022-10-04T17:34:12.701Z,72.40
2022-10-04T17:36:43.741Z,73.60
2022-10-04T17:39:44.376Z,73.30
2022-10-04T17:42:31.915Z,73.70
2022-10-04T17:45:23.368Z,74.80
2022-10-04T17:48:19.011Z,75.20
2022-10-04T17:51:13.514Z,75.30
2022-10-04T17:54:04.009Z,76.10
2022-10-04T17:56:37.016Z,75.90
2022-10-04T17:59:13.066Z,77.10
2022-10-04T18:01:46.364Z,77.60
2022-10-04T18:04:20.887Z,78.80
2022-10-04T18:06:55.567Z,78.70
2022-10-04T18:09:30.135Z,79.40
2022-10-04T18:12:03.077Z,80.20
2022-10-04T18:14:59.366Z,80.10
2022-10-04T18:17:33.082Z,79.90
2022-10-04T18:20:27.726Z,80.70
2022-10-04T18:23:02.080Z,82.50
2022-10-04T18:25:33.839Z,81.90
2022-10-04T18:28:06.822Z,81.80
2022-10-04T18:30:53.825Z,84.30
2022-10-04T18:33:26.681Z,83.50
2022-10-04T18:36:04.408Z,84.00
2022-10-04T18:38:34.972Z,84.20
2022-10-04T18:41:13.067Z,84.20
2022-10-04T18:43:50.681Z,84.20
2022-10-04T18:46:22.068Z,85.50
2022-10-04T18:48:55.725Z,86.00
2022-10-04T18:51:29.618Z,87.10
2022-10-04T18:54:21.364Z,87.60
2022-10-04T18:56:57.186Z,88.50
2022-10-04T18:59:56.617Z,88.60
2022-10-04T19:02:36.236Z,88.90
2022-10-04T19:05:14.144Z,89.40
2022-10-04T19:07:51.419Z,89.20
2022-10-04T19:10:25.956Z,90.10
2022-10-04T19:13:10.852Z,89.70
2022-10-04T19:16:13.030Z,89.50
2022-10-04T19:19:07.800Z,89.80
2022-10-04T19:21:46.421Z,89.50
2022-10-04T19:24:45.122Z,89.80
2022-10-04T19:27:23.502Z,90.20
2022-10-04T19:30:03.405Z,90.90
2022-10-04T19:32:39.700Z,90.50
2022-10-04T19:35:22.139Z,91.30
2022-10-04T19:37:58.099Z,92.00
2022-10-04T19:40:35.925Z,92.20
2022-10-04T19:43:08.890Z,92.60
2022-10-04T19:45:45.552Z,92.60
2022-10-04T19:48:23.478Z,92.70
2022-10-04T19:51:02.214Z,92.40
2022-10-04T19:53:38.008Z,92.70
2022-10-04T19:56:15.627Z,92.50
2022-10-04T19:58:45.481Z,92.50
2022-10-04T20:01:14.414Z,92.70
2022-10-04T20:03:42.611Z,92.90
2022-10-04T20:06:21.324Z,92.70
2022-10-04T20:09:01.496Z,92.70
2022-10-04T20:11:49.537Z,92.60
2022-10-04T20:14:44.915Z,92.90
2022-10-04T20:17:32.832Z,93.10
2022-10-04T20:20:01.226Z,93.00
2022-10-04T20:22:54.991Z,92.90
2022-10-04T20:26:00.458Z,93.50
2022-10-04T20:28:41.581Z,93.60
2022-10-04T20:31:10.802Z,94.10
2022-10-04T20:33:49.942Z,94.00
2022-10-04T20:36:52.957Z,94.30
2022-10-04T20:40:00.813Z,94.40
2022-10-04T20:42:35.932Z,94.20
2022-10-04T20:45:22.357Z,94.40
2022-10-04T20:47:51.651Z,94.70
2022-10-04T20:50:31.368Z,95.00
2022-10-04T20:53:01.988Z,94.80
2022-10-04T20:55:32.227Z,94.80
2022-10-04T20:58:03.948Z,94.80
2022-10-04T21:00:35.038Z,94.90
2022-10-04T21:03:13.761Z,94.80
2022-10-04T21:05:42.222Z,95.00
2022-10-04T21:08:14.407Z,94.80
2022-10-04T21:11:24.132Z,95.20
2022-10-04T21:14:25.667Z,95.10
2022-10-04T21:16:59.917Z,95.10
2022-10-04T21:19:45.832Z,95.00
2022-10-04T21:22:39.860Z,95.20
2022-10-04T21:25:32.872Z,95.40
2022-10-04T21:28:23.526Z,95.60
2022-10-04T21:30:53.021Z,95.60
2022-10-04T21:33:20.933Z,95.60
2022-10-04T21:35:51.353Z,95.50
2022-10-04T21:38:19.331Z,95.60
2022-10-04T21:40:47.323Z,95.50
2022-10-04T21:43:15.315Z,95.80
2022-10-04T21:45:43.487Z,96.10
2022-10-04T21:48:12.849Z,96.00
2022-10-04T21:50:40.986Z,96.10
2022-10-04T21:53:09.332Z,96.10
2022-10-04T21:55:37.340Z,96.10
2022-10-04T21:58:05.261Z,96.30
2022-10-04T22:00:34.123Z,96.20
2022-10-04T22:03:04.465Z,96.20
2022-10-04T22:05:33.749Z,96.30
2022-10-04T22:08:02.634Z,96.10
2022-10-04T22:10:31.086Z,96.20
2022-10-04T22:12:59.003Z,96.50
2022-10-04T22:15:28.493Z,96.40
2022-10-04T22:17:57.152Z,96.60
2022-10-04T22:20:25.891Z,96.40
2022-10-04T22:22:57.478Z,96.40
2022-10-04T22:25:27.239Z,97.00
2022-10-04T22:27:55.465Z,96.70
2022-10-04T22:30:26.697Z,96.60
2022-10-04T22:32:57.029Z,96.70
2022-10-04T22:35:25.551Z,96.70
2022-10-04T22:37:55.075Z,96.70
2022-10-04T22:40:25.082Z,96.70
2022-10-04T22:42:54.639Z,96.90
2022-10-04T22:45:25.201Z,97.00
2022-10-04T22:47:54.375Z,97.00
2022-10-04T22:50:31.708Z,96.90
2022-10-04T22:53:05.568Z,97.00
2022-10-04T22:55:33.626Z,97.00
2022-10-04T22:58:02.834Z,97.00
2022-10-04T23:00:30.812Z,97.00
2022-10-04T23:02:58.930Z,97.00
2022-10-04T23:05:28.644Z,97.20
2022-10-04T23:07:56.650Z,97.00
2022-10-04T23:10:25.973Z,97.10
2022-10-04T23:12:53.992Z,97.20
2022-10-04T23:15:22.167Z,97.50
2022-10-04T23:17:55.456Z,97.40
2022-10-04T23:20:24.239Z,97.40
2022-10-04T23:22:54.397Z,97.20
2022-10-04T23:25:28.061Z,97.30
2022-10-04T23:27:59.413Z,97.20
2022-10-04T23:30:27.955Z,97.20
2022-10-04T23:33:02.079Z,97.20
2022-10-04T23:35:33.498Z,97.30
2022-10-04T23:38:03.673Z,97.10
2022-10-04T23:40:32.970Z,97.30
2022-10-04T23:43:03.684Z,97.50
2022-10-04T23:45:31.791Z,97.40
2022-10-04T23:48:01.371Z,97.60
2022-10-04T23:50:32.754Z,97.50
2022-10-04T23:53:04.555Z,97.40
2022-10-04T23:55:36.249Z,97.60
2022-10-04T23:58:13.548Z,97.60
